Map

Track Data

SID SEASON NUMBER BASIN SUBBASIN NAME ISO_TIME NATURE LAT LON WMO_WIND WMO_PRES WMO_AGENCY TRACK_TYPE DIST2LAND LANDFALL IFLAG USA_AGENCY USA_ATCF_ID USA_LAT USA_LON USA_RECORD USA_STATUS USA_WIND USA_PRES USA_SSHS USA_R34_NE USA_R34_SE USA_R34_SW USA_R34_NW USA_R50_NE USA_R50_SE USA_R50_SW USA_R50_NW USA_R64_NE USA_R64_SE USA_R64_SW USA_R64_NW USA_POCI USA_ROCI USA_RMW USA_EYE TOKYO_LAT TOKYO_LON TOKYO_GRADE TOKYO_WIND TOKYO_PRES TOKYO_R50_DIR TOKYO_R50_LONG TOKYO_R50_SHORT TOKYO_R30_DIR TOKYO_R30_LONG TOKYO_R30_SHORT TOKYO_LAND CMA_LAT CMA_LON CMA_CAT CMA_WIND CMA_PRES HKO_LAT HKO_LON HKO_CAT HKO_WIND HKO_PRES NEWDELHI_LAT NEWDELHI_LON NEWDELHI_GRADE NEWDELHI_WIND NEWDELHI_PRES NEWDELHI_CI NEWDELHI_DP NEWDELHI_POCI REUNION_LAT REUNION_LON REUNION_TYPE REUNION_WIND REUNION_PRES REUNION_TNUM REUNION_CI REUNION_RMW REUNION_R34_NE REUNION_R34_SE REUNION_R34_SW REUNION_R34_NW REUNION_R50_NE REUNION_R50_SE REUNION_R50_SW REUNION_R50_NW REUNION_R64_NE REUNION_R64_SE REUNION_R64_SW REUNION_R64_NW BOM_LAT BOM_LON BOM_TYPE BOM_WIND BOM_PRES BOM_TNUM BOM_CI BOM_RMW BOM_R34_NE BOM_R34_SE BOM_R34_SW BOM_R34_NW BOM_R50_NE BOM_R50_SE BOM_R50_SW BOM_R50_NW BOM_R64_NE BOM_R64_SE BOM_R64_SW BOM_R64_NW BOM_ROCI BOM_POCI BOM_EYE BOM_POS_METHOD BOM_PRES_METHOD NADI_LAT NADI_LON NADI_CAT NADI_WIND NADI_PRES WELLINGTON_LAT WELLINGTON_LON WELLINGTON_WIND WELLINGTON_PRES DS824_LAT DS824_LON DS824_STAGE DS824_WIND DS824_PRES TD9636_LAT TD9636_LON TD9636_STAGE TD9636_WIND TD9636_PRES TD9635_LAT TD9635_LON TD9635_WIND TD9635_PRES TD9635_ROCI NEUMANN_LAT NEUMANN_LON NEUMANN_CLASS NEUMANN_WIND NEUMANN_PRES MLC_LAT MLC_LON MLC_CLASS MLC_WIND MLC_PRES USA_GUST BOM_GUST BOM_GUST_PER REUNION_GUST REUNION_GUST_PER USA_SEAHGT USA_SEARAD_NE USA_SEARAD_SE USA_SEARAD_SW USA_SEARAD_NW STORM_SPEED STORM_DIR
1931345S16060 1932 61 SI MM NOT_NAMED 1931-12-11 00:00:00 TS -16.4000 60.0000 main 479 440 _________O____ -1 -16.4000 60.0000 TC 25 7 213
1931345S16060 1932 61 SI MM NOT_NAMED 1931-12-11 03:00:00 TS -16.7001 59.7976 main 440 400 _________P____ -1 -16.7001 59.7976 TC 25 7 213
1931345S16060 1932 61 SI MM NOT_NAMED 1931-12-11 06:00:00 TS -17.0000 59.6000 main 400 360 _________O____ -1 -17.0000 59.6000 TC 25 7 212
1931345S16060 1932 61 SI MM NOT_NAMED 1931-12-11 09:00:00 TS -17.3000 59.4074 main 360 321 _________P____ -1 -17.3000 59.4074 TC 25 7 212
1931345S16060 1932 61 SI MM NOT_NAMED 1931-12-11 12:00:00 TS -17.6000 59.2000 main 321 281 _________O____ -1 -17.6000 59.2000 TC 25 7 216
1931345S16060 1932 61 SI MM NOT_NAMED 1931-12-11 15:00:00 TS -17.9000 58.9575 main 281 237 _________P____ -1 -17.9000 58.9575 TC 25 8 218
1931345S16060 1932 61 SI MM NOT_NAMED 1931-12-11 18:00:00 TS -18.2000 58.7000 main 237 197 _________O____ -1 -18.2000 58.7000 TC 25 8 219
1931345S16060 1932 61 SI MM NOT_NAMED 1931-12-11 21:00:00 TS -18.5000 58.4499 main 193 154 _________P____ -1 -18.5000 58.4499 TC 25 8 218
1931345S16060 1932 61 SI MM NOT_NAMED 1931-12-12 00:00:00 TS -18.8000 58.2000 main 154 116 _________O____ -1 -18.8000 58.2000 TC 25 8 218
1931345S16060 1932 61 SI MM NOT_NAMED 1931-12-12 03:00:00 TS -19.0999 57.9574 main 116 78 _________P____ -1 -19.0999 57.9574 TC 25 8 218
1931345S16060 1932 61 SI MM NOT_NAMED 1931-12-12 06:00:00 TS -19.4000 57.7000 main 78 44 _________O____ -1 -19.4000 57.7000 TC 25 8 221
1931345S16060 1932 61 SI MM NOT_NAMED 1931-12-12 09:00:00 TS -19.7150 57.4000 main 45 38 _________P____ -1 -19.7150 57.4000 TC 25 8 223
1931345S16060 1932 61 SI MM NOT_NAMED 1931-12-12 12:00:00 TS -20.0000 57.1000 main 43 43 _________O____ -1 -20.0000 57.1000 TC 25 7 227
1931345S16060 1932 61 SI MM NOT_NAMED 1931-12-12 15:00:00 TS -20.2150 56.8349 main 61 56 _________P____ -1 -20.2150 56.8349 TC 25 6 230
1931345S16060 1932 61 SI MM NOT_NAMED 1931-12-12 18:00:00 TS -20.4000 56.6000 main 73 73 _________O____ -1 -20.4000 56.6000 TC 25 6 228
1931345S16060 1932 61 SI MM NOT_NAMED 1931-12-12 21:00:00 TS -20.5849 56.3998 main 83 53 _________P____ -1 -20.5849 56.3998 TC 25 5 223
1931345S16060 1932 61 SI MM NOT_NAMED 1931-12-13 00:00:00 TS -20.8000 56.2000 main 53 20 _________O____ -1 -20.8000 56.2000 TC 25 7 220
1931345S16060 1932 61 SI MM NOT_NAMED 1931-12-13 03:00:00 TS -21.0850 55.9575 main 20 0 _________P____ -1 -21.0850 55.9575 TC 25 8 218
1931345S16060 1932 61 SI MM NOT_NAMED 1931-12-13 06:00:00 TS -21.4000 55.7000 main 10 10 _________O____ -1 -21.4000 55.7000 TC 25 8 217
1931345S16060 1932 61 SI MM NOT_NAMED 1931-12-13 09:00:00 TS -21.7075 55.4499 main 39 39 _________P____ -1 -21.7075 55.4499 TC 25 8 218
1931345S16060 1932 61 SI MM NOT_NAMED 1931-12-13 12:00:00 TS -22.0000 55.2000 main 78 78 _________O____ -1 -22.0000 55.2000 TC 25 7 220
1931345S16060 1932 61 SI MM NOT_NAMED 1931-12-13 15:00:00 TS -22.2575 54.9499 main 119 119 _________P____ -1 -22.2575 54.9499 TC 25 7 223
1931345S16060 1932 61 SI MM NOT_NAMED 1931-12-13 18:00:00 TS -22.5000 54.7000 main 147 147 _________O____ -1 -22.5000 54.7000 TC 25 7 223
1931345S16060 1932 61 SI MM NOT_NAMED 1931-12-13 21:00:00 TS -22.7476 54.4502 main 176 176 _________P____ -1 -22.7476 54.4502 TC 25 7 223
1931345S16060 1932 61 SI MM NOT_NAMED 1931-12-14 00:00:00 TS -23.0000 54.2000 main 221 _________O____ -1 -23.0000 54.2000 TC 25 7 223

About IBTrACS Database

This database is a web-friendly format of International Best Track Archive for Climate Stewardship (IBTrACS), a global best track data archive curated by NOAA dating back to 1842.

Updated: 2021-11-26